Time;durP1;ratioP1;P1;durP2;ratioP2;P2;SDS_P1;SDS_P2;PMS_P1;PMS_P2;Temp;Humidity;BMP_temperature;BMP_pressure;BME280_temperature;BME280_humidity;BME280_pressure;Samples;Min_cycle;Max_cycle;Signal;HPM_P1;HPM_P2
2023/07/05 00:00:21;;;;;;;17.38;9.45;;;;;;;-145.63;42.99;38746.56;5069656;28;20064;-71
2023/07/05 00:02:50;;;;;;;18.33;10.27;;;;;;;-145.63;43.41;38728.97;5068469;28;20162;-71
2023/07/05 00:05:16;;;;;;;12.10;8.90;;;;;;;-145.63;43.60;38727.00;5065386;28;20043;-71
2023/07/05 00:07:42;;;;;;;13.95;9.57;;;;;;;-145.63;43.77;38736.78;5066815;28;20020;-70
2023/07/05 00:10:08;;;;;;;13.15;9.50;;;;;;;-145.63;44.20;38750.47;5069729;28;20032;-70
2023/07/05 00:12:34;;;;;;;16.65;9.80;;;;;;;-145.63;44.05;38750.47;5077902;28;20029;-70
2023/07/05 00:15:00;;;;;;;17.02;9.35;;;;;;;-145.63;44.04;38746.56;5070217;28;20345;-71
2023/07/05 00:17:25;;;;;;;19.63;9.38;;;;;;;-145.63;44.03;38762.22;5065304;28;20028;-69
2023/07/05 00:19:52;;;;;;;17.55;10.20;;;;;;;-145.63;44.77;38766.13;5065499;28;20236;-68
2023/07/05 00:22:18;;;;;;;14.63;9.73;;;;;;;-145.63;44.44;38736.78;5069508;28;20050;-69
2023/07/05 00:24:44;;;;;;;13.00;9.35;;;;;;;-145.63;44.64;38754.38;5077614;28;20032;-70
2023/07/05 00:27:10;;;;;;;14.35;9.40;;;;;;;-145.63;45.00;38773.94;5064881;28;20021;-69
2023/07/05 00:29:35;;;;;;;17.30;9.48;;;;;;;-145.63;45.13;38801.31;5079856;28;20063;-69
2023/07/05 00:32:01;;;;;;;13.43;8.95;;;;;;;-145.63;44.99;38789.59;5074351;28;20126;-68
2023/07/05 00:34:26;;;;;;;12.85;9.63;;;;;;;-145.63;44.94;38770.03;5070132;28;20027;-68
2023/07/05 00:36:52;;;;;;;12.85;9.23;;;;;;;-145.63;44.87;38770.03;5083730;28;20179;-70
2023/07/05 00:39:17;;;;;;;15.35;9.80;;;;;;;-145.63;45.11;38793.50;5064814;28;20043;-70
2023/07/05 00:41:43;;;;;;;14.43;9.40;;;;;;;-145.63;45.34;38811.09;5063918;28;20020;-71
2023/07/05 00:44:09;;;;;;;15.25;10.15;;;;;;;-145.63;45.33;38807.19;5074482;28;20056;-70
2023/07/05 00:46:35;;;;;;;14.00;9.57;;;;;;;-145.63;45.34;38809.13;5077879;28;20219;-71
2023/07/05 00:49:11;;;;;;;16.02;10.05;;;;;;;-145.63;45.72;38775.91;5066685;28;20100;-70
2023/07/05 00:51:50;;;;;;;15.88;9.02;;;;;;;-145.63;45.93;38793.50;5084898;28;20032;-71
2023/07/05 00:54:19;;;;;;;12.85;9.18;;;;;;;-145.63;45.74;38820.88;5044194;28;20029;-70
2023/07/05 00:56:50;;;;;;;13.65;9.25;;;;;;;-145.63;45.60;38820.88;5079393;28;20024;-70
2023/07/05 00:59:17;;;;;;;14.90;9.65;;;;;;;-145.63;45.81;38836.50;5072244;28;20053;-69
2023/07/05 01:01:43;;;;;;;17.38;10.05;;;;;;;-145.63;46.02;38799.34;5064096;28;20100;-68
2023/07/05 01:04:10;;;;;;;14.50;10.43;;;;;;;-145.63;46.00;38789.59;5064838;28;20032;-69
2023/07/05 01:06:35;;;;;;;14.50;9.82;;;;;;;-145.63;46.25;38797.41;5064444;28;20049;-69
2023/07/05 01:09:01;;;;;;;13.35;9.63;;;;;;;-145.63;46.04;38813.03;5063682;28;20056;-69
2023/07/05 01:11:38;;;;;;;15.65;9.20;;;;;;;-145.63;45.93;38715.28;5078030;28;20020;-70
2023/07/05 01:14:22;;;;;;;11.45;9.23;;;;;;;-145.63;46.58;38801.31;5072380;28;20049;-69
2023/07/05 01:16:56;;;;;;;16.15;10.10;;;;;;;-145.63;46.39;38830.66;5071921;28;20032;-69
2023/07/05 01:19:37;;;;;;;16.58;10.20;;;;;;;-145.63;46.33;38809.13;5079285;28;20029;-68
2023/07/05 01:22:14;;;;;;;12.77;9.10;;;;;;;-145.63;46.12;38787.63;5066033;28;20024;-69
2023/07/05 01:25:21;;;;;;;17.20;9.77;;;;;;;-145.63;46.28;38828.69;5076964;28;20043;-69
2023/07/05 01:28:01;;;;;;;15.82;9.20;;;;;;;-145.63;46.63;38805.22;5063677;28;20031;-68
2023/07/05 01:31:05;;;;;;;15.90;9.73;;;;;;;-145.63;46.55;38822.81;5043864;28;20060;-68
2023/07/05 01:33:34;;;;;;;12.90;9.43;;;;;;;-145.63;46.34;38820.88;5042325;28;20045;-70
2023/07/05 01:36:00;;;;;;;14.68;9.05;;;;;;;-145.63;46.25;38789.59;5079472;28;20028;-69
2023/07/05 01:38:25;;;;;;;12.88;9.27;;;;;;;-145.63;46.61;38785.66;5070294;28;20528;-69
2023/07/05 01:40:55;;;;;;;13.98;9.77;;;;;;;-145.63;46.79;38118.91;5063540;28;20031;-68
2023/07/05 01:43:21;;;;;;;16.95;10.93;;;;;;;-145.63;46.36;38811.09;5066730;28;20101;-69
2023/07/05 01:45:53;;;;;;;13.60;9.43;;;;;;;-145.63;46.82;38801.31;5083532;28;20623;-70
2023/07/05 01:48:46;;;;;;;14.63;9.23;;;;;;;-145.63;46.69;38789.59;5043855;28;20033;-69
2023/07/05 01:51:25;;;;;;;13.30;9.05;;;;;;;-145.63;46.52;38813.03;5082583;28;20037;-70
2023/07/05 01:53:53;;;;;;;14.68;9.40;;;;;;;-145.63;47.18;38775.91;5066678;28;20037;-68
2023/07/05 01:56:24;;;;;;;18.30;10.60;;;;;;;-145.63;46.62;38781.75;5075621;28;20032;-69
2023/07/05 01:58:54;;;;;;;14.77;10.95;;;;;;;-145.63;46.48;38797.41;5074991;28;20301;-67
2023/07/05 02:01:22;;;;;;;15.68;10.18;;;;;;;-145.63;46.50;38830.66;5062157;28;20021;-68
2023/07/05 02:03:50;;;;;;;16.55;10.32;;;;;;;-145.63;46.55;38771.97;5063092;28;20021;-69
2023/07/05 02:06:18;;;;;;;18.25;10.20;;;;;;;-145.63;46.65;38832.59;5062984;28;20092;-69
2023/07/05 02:08:48;;;;;;;17.50;10.32;;;;;;;-145.63;46.77;38768.06;5078389;28;20048;-69
2023/07/05 02:11:13;;;;;;;14.23;10.52;;;;;;;-145.63;46.90;38770.03;5071986;28;20045;-69
2023/07/05 02:13:39;;;;;;;14.88;9.73;;;;;;;-145.63;46.94;38807.19;5069779;28;20029;-70
2023/07/05 02:16:04;;;;;;;20.77;11.32;;;;;;;-145.63;47.08;38801.31;5081700;28;20047;-70
2023/07/05 02:18:30;;;;;;;15.73;10.90;;;;;;;-145.63;47.20;38791.53;5062931;28;20356;-70
2023/07/05 02:20:56;;;;;;;15.23;11.07;;;;;;;-145.63;47.03;38719.19;5080328;28;20301;-70
2023/07/05 02:23:22;;;;;;;16.88;10.90;;;;;;;-145.63;46.49;38707.44;5070995;28;20028;-70
2023/07/05 02:25:50;;;;;;;18.65;11.77;;;;;;;-145.63;46.69;38754.38;5062849;28;20029;-70
2023/07/05 02:28:16;;;;;;;19.10;10.57;;;;;;;-145.63;46.52;38746.56;5065965;28;20056;-70
2023/07/05 02:30:41;;;;;;;18.73;11.10;;;;;;;-145.63;46.63;38760.25;5080411;28;20059;-69
2023/07/05 02:33:08;;;;;;;18.20;10.63;;;;;;;-145.63;46.47;38734.81;5057891;28;20041;-70
2023/07/05 02:35:35;;;;;;;18.17;10.80;;;;;;;-145.63;46.55;38719.19;5056049;28;20040;-70
2023/07/05 02:38:00;;;;;;;17.05;10.40;;;;;;;-145.63;46.44;38451.28;5061690;28;20088;-69
2023/07/05 02:40:26;;;;;;;16.25;10.95;;;;;;;-145.63;46.02;38685.94;5062722;28;20071;-69
2023/07/05 02:42:51;;;;;;;20.60;11.45;;;;;;;-145.63;45.95;38670.28;5062795;28;20060;-70
2023/07/05 02:45:17;;;;;;;18.13;12.20;;;;;;;-145.63;46.02;38687.91;5077228;28;20025;-68
2023/07/05 02:47:42;;;;;;;23.77;12.50;;;;;;;-145.63;45.55;38697.69;5072245;28;20024;-69
2023/07/05 02:50:09;;;;;;;19.48;11.60;;;;;;;-145.63;45.76;38674.22;5061572;28;20202;-70
2023/07/05 02:52:34;;;;;;;17.73;11.25;;;;;;;-145.63;45.43;38621.41;5063859;28;20021;-69
2023/07/05 02:55:00;;;;;;;15.55;11.68;;;;;;;-145.63;45.32;38631.19;5082784;28;20069;-70
2023/07/05 02:57:25;;;;;;;17.00;11.25;;;;;;;-145.63;45.04;38594.03;5066163;28;20021;-70
2023/07/05 02:59:51;;;;;;;15.50;11.50;;;;;;;-145.63;45.28;38564.72;5063091;28;20036;-70
2023/07/05 03:02:16;;;;;;;14.15;10.98;;;;;;;-145.63;44.68;38594.03;5069775;28;20035;-69
2023/07/05 03:04:42;;;;;;;16.50;10.85;;;;;;;-145.63;44.90;38590.13;5080514;28;20032;-69
2023/07/05 03:07:08;;;;;;;18.67;10.85;;;;;;;-145.63;44.59;38562.75;5062749;28;20025;-69
2023/07/05 03:09:33;;;;;;;13.75;9.93;;;;;;;-145.63;44.60;38629.22;5062745;28;20036;-69
2023/07/05 03:11:59;;;;;;;15.52;11.60;;;;;;;-145.63;44.54;38580.34;5062792;28;20021;-70
2023/07/05 03:14:25;;;;;;;16.50;11.05;;;;;;;-145.63;44.72;38566.66;5070676;28;20100;-70
2023/07/05 03:16:50;;;;;;;16.27;10.32;;;;;;;-145.63;44.83;38560.78;5074968;28;20345;-69
2023/07/05 03:19:16;;;;;;;19.58;11.07;;;;;;;-145.63;44.28;38558.84;5065695;28;20036;-69
2023/07/05 03:21:43;;;;;;;17.27;11.90;;;;;;;-145.63;44.09;38537.34;5086124;28;20025;-70
2023/07/05 03:24:08;;;;;;;17.67;11.63;;;;;;;-145.63;44.42;38519.72;5072048;28;20036;-70
2023/07/05 03:26:34;;;;;;;17.45;11.45;;;;;;;-145.63;44.00;38547.09;5075315;28;20032;-70
2023/07/05 03:29:02;;;;;;;15.75;11.05;;;;;;;-145.63;44.02;38519.72;5080657;28;20045;-69
2023/07/05 03:31:28;;;;;;;20.73;13.13;;;;;;;-145.63;44.89;38543.19;5066333;28;20113;-69
2023/07/05 03:33:53;;;;;;;20.20;12.90;;;;;;;-145.63;44.41;38500.19;5073976;28;20314;-69
2023/07/05 03:36:20;;;;;;;19.70;12.35;;;;;;;-145.63;44.80;38504.09;5065929;28;20195;-69
2023/07/05 03:38:48;;;;;;;16.80;11.48;;;;;;;-145.63;44.42;38504.09;5065886;28;20268;-69
2023/07/05 03:41:19;;;;;;;18.65;12.63;;;;;;;-145.63;43.77;38554.94;5065679;28;20360;-69
2023/07/05 03:43:54;;;;;;;16.13;12.20;;;;;;;-145.63;43.77;38079.81;5068019;28;20035;-69
2023/07/05 03:46:19;;;;;;;19.23;12.45;;;;;;;-145.63;44.02;38513.88;5084794;28;20032;-70
2023/07/05 03:48:46;;;;;;;24.05;14.07;;;;;;;-145.63;43.49;38459.13;5066929;28;20029;-70
2023/07/05 03:51:13;;;;;;;19.50;12.20;;;;;;;-145.63;43.72;38535.38;5079879;28;20039;-69
2023/07/05 03:53:39;;;;;;;18.75;11.52;;;;;;;-145.63;43.60;38463.03;5075843;28;20099;-69
2023/07/05 03:56:08;;;;;;;16.60;12.02;;;;;;;-145.63;43.79;38439.56;5065472;28;20063;-69
2023/07/05 03:58:34;;;;;;;19.85;11.60;;;;;;;-145.63;43.66;38461.06;5065405;28;20079;-68
2023/07/05 04:01:14;;;;;;;20.33;12.20;;;;;;;-145.63;43.78;38414.16;5065665;28;20104;-68
2023/07/05 04:03:45;;;;;;;20.05;12.55;;;;;;;-145.63;43.64;38400.47;5065829;28;20364;-69
2023/07/05 04:06:11;;;;;;;16.17;11.65;;;;;;;-145.63;43.98;38384.81;5078215;28;20070;-68
2023/07/05 04:08:37;;;;;;;17.95;12.20;;;;;;;-145.63;43.58;38418.06;5077708;28;20052;-68
2023/07/05 04:11:04;;;;;;;25.98;12.30;;;;;;;-145.63;43.64;38423.91;5080866;28;20075;-70
2023/07/05 04:13:30;;;;;;;20.35;11.57;;;;;;;-145.63;43.21;38410.22;5065478;28;20037;-70
2023/07/05 04:16:04;;;;;;;21.00;13.57;;;;;;;-145.63;42.92;38392.63;5085146;28;20028;-70
2023/07/05 04:18:31;;;;;;;20.00;13.77;;;;;;;-145.63;42.97;38437.59;5069108;28;20028;-70
2023/07/05 04:20:57;;;;;;;22.27;12.50;;;;;;;-145.63;43.07;38404.38;5076982;28;20222;-70
2023/07/05 04:23:23;;;;;;;22.02;12.68;;;;;;;-145.63;42.99;38390.69;5077979;28;20051;-70
2023/07/05 04:25:48;;;;;;;20.65;12.75;;;;;;;-145.63;43.02;38394.59;5064693;28;20041;-70
2023/07/05 04:28:14;;;;;;;19.73;12.05;;;;;;;-145.63;43.00;38377.00;5065567;28;20088;-69
2023/07/05 04:30:40;;;;;;;18.17;12.57;;;;;;;-145.63;43.06;38353.53;5074900;28;20037;-70
2023/07/05 04:33:05;;;;;;;17.80;11.52;;;;;;;-145.63;43.07;38347.66;5070673;28;20048;-70
2023/07/05 04:35:31;;;;;;;14.88;12.18;;;;;;;-145.63;43.21;38306.59;5069604;28;20321;-69
2023/07/05 04:37:56;;;;;;;25.33;13.40;;;;;;;-145.63;42.75;38314.44;5064803;28;20056;-69
2023/07/05 04:40:22;;;;;;;17.75;11.90;;;;;;;-145.63;42.36;38318.34;5063452;28;20043;-70
2023/07/05 04:42:48;;;;;;;17.90;12.32;;;;;;;-145.63;42.54;38259.69;5082154;28;20083;-70
2023/07/05 04:45:15;;;;;;;18.52;12.55;;;;;;;-145.63;41.91;38222.53;5070726;28;20037;-71
2023/07/05 04:47:40;;;;;;;20.40;12.65;;;;;;;-145.63;41.96;38187.34;5064624;28;20033;-70
2023/07/05 04:50:06;;;;;;;18.17;11.98;;;;;;;-145.63;41.24;38193.19;5069012;28;20028;-69
2023/07/05 04:52:31;;;;;;;21.48;11.73;;;;;;;-145.63;40.66;38197.13;5084222;28;20212;-69
2023/07/05 04:54:57;;;;;;;24.73;11.25;;;;;;;-145.63;40.09;38177.56;5064883;28;20058;-68
2023/07/05 04:57:22;;;;;;;21.52;10.38;;;;;;;-145.63;40.09;38089.56;5063354;28;20306;-69
2023/07/05 04:59:51;;;;;;;19.65;11.10;;;;;;;-145.63;40.62;38118.91;5064050;28;20029;-69
2023/07/05 05:02:18;;;;;;;18.42;10.35;;;;;;;-145.63;39.58;38124.78;5070133;28;20084;-68
2023/07/05 05:04:44;;;;;;;19.10;10.75;;;;;;;-145.63;39.01;38140.41;5081780;28;20225;-69
2023/07/05 05:07:09;;;;;;;16.40;9.40;;;;;;;-145.63;38.82;38195.16;5064291;28;20028;-70
2023/07/05 05:09:35;;;;;;;16.13;9.82;;;;;;;-145.63;39.08;38089.56;5080615;28;20225;-69
2023/07/05 05:12:00;;;;;;;12.85;9.02;;;;;;;-145.63;38.98;38056.34;5072494;28;20039;-70
2023/07/05 05:14:26;;;;;;;20.33;9.63;;;;;;;-145.63;38.80;38054.38;5064309;28;20185;-69
2023/07/05 05:16:51;;;;;;;15.52;9.15;;;;;;;-145.63;37.40;38025.06;5063895;28;20033;-70
2023/07/05 05:19:17;;;;;;;14.55;8.90;;;;;;;-145.63;37.27;38058.28;5064118;28;20029;-69
2023/07/05 05:21:42;;;;;;;15.77;8.55;;;;;;;-145.63;37.16;38052.44;5081347;28;20028;-70
2023/07/05 05:24:09;;;;;;;13.57;8.70;;;;;;;-145.63;36.76;38081.75;5070269;28;20324;-71
2023/07/05 05:26:34;;;;;;;13.70;8.75;;;;;;;-145.63;36.87;38075.91;5072060;28;20209;-69
2023/07/05 05:29:00;;;;;;;11.77;8.90;;;;;;;-145.63;36.62;38011.38;5070847;28;20068;-70
2023/07/05 05:31:25;;;;;;;14.35;8.82;;;;;;;-145.63;36.34;38044.63;5084182;28;20048;-69
2023/07/05 05:33:51;;;;;;;11.15;8.65;;;;;;;-145.63;36.80;37999.66;5065291;28;20052;-68
2023/07/05 05:36:16;;;;;;;15.48;9.07;;;;;;;-145.63;36.54;38034.84;5062910;28;20029;-69
2023/07/05 05:38:42;;;;;;;16.10;9.00;;;;;;;-145.63;35.64;37974.22;5072965;28;20028;-70
2023/07/05 05:41:10;;;;;;;10.02;8.38;;;;;;;-145.63;35.23;38021.16;5073922;28;20116;-69
2023/07/05 05:43:36;;;;;;;18.00;8.25;;;;;;;-145.63;35.97;37974.22;5063497;28;20060;-70
2023/07/05 05:46:02;;;;;;;14.88;8.05;;;;;;;-145.63;36.19;37933.16;5043633;28;20033;-69
2023/07/05 05:48:27;;;;;;;17.08;7.90;;;;;;;-145.63;36.32;37939.03;5074212;28;20217;-70
2023/07/05 05:50:53;;;;;;;12.05;8.15;;;;;;;-145.63;35.14;37933.16;5072675;28;20028;-69
2023/07/05 05:53:19;;;;;;;13.88;8.13;;;;;;;-145.63;35.30;37856.94;5069076;28;20036;-68
2023/07/05 05:55:44;;;;;;;14.32;8.57;;;;;;;-145.63;34.77;37897.97;5082605;28;20143;-69
2023/07/05 05:58:10;;;;;;;12.50;7.90;;;;;;;-145.63;34.45;37876.47;5063275;28;20021;-69
2023/07/05 06:00:38;;;;;;;16.48;8.93;;;;;;;-145.63;33.83;37851.06;5062991;28;20374;-69
2023/07/05 06:03:04;;;;;;;13.93;8.80;;;;;;;-145.63;33.47;37843.25;5061048;28;20037;-69
2023/07/05 06:05:32;;;;;;;12.88;8.05;;;;;;;-145.63;33.87;37790.44;5070651;28;20036;-69
2023/07/05 06:07:58;;;;;;;12.70;8.18;;;;;;;-145.63;34.08;37770.91;5080617;28;20052;-69
2023/07/05 06:10:24;;;;;;;11.27;8.35;;;;;;;-145.63;33.79;37735.72;5063494;28;20060;-71
2023/07/05 06:12:50;;;;;;;14.18;8.25;;;;;;;-145.63;33.14;37694.66;5080306;28;20051;-71
2023/07/05 06:15:15;;;;;;;14.35;8.30;;;;;;;-145.63;32.14;37723.97;5068953;28;20036;-70
2023/07/05 06:17:41;;;;;;;14.02;7.80;;;;;;;-145.63;32.04;37673.16;5062699;28;20035;-70
2023/07/05 06:20:10;;;;;;;15.20;7.68;;;;;;;-145.63;32.53;37706.38;5065735;28;20033;-68
2023/07/05 06:22:36;;;;;;;12.32;7.40;;;;;;;-145.63;32.57;37673.16;5083240;28;20029;-69
2023/07/05 06:25:02;;;;;;;14.98;7.82;;;;;;;-145.63;31.42;37702.47;5062603;28;20048;-68
2023/07/05 06:27:29;;;;;;;10.98;7.50;;;;;;;-145.63;32.18;37634.06;5078512;28;20056;-68
2023/07/05 06:29:55;;;;;;;19.92;8.02;;;;;;;-145.63;30.67;37614.50;5072765;28;20067;-68
2023/07/05 06:32:21;;;;;;;17.27;8.55;;;;;;;-145.63;30.62;37596.91;5065398;28;20033;-67
2023/07/05 06:34:47;;;;;;;15.93;7.75;;;;;;;-145.63;30.78;37542.19;5063543;28;20100;-69
2023/07/05 06:37:12;;;;;;;19.17;8.23;;;;;;;-145.63;30.59;37579.31;5062507;28;20115;-68
2023/07/05 06:39:40;;;;;;;15.07;7.70;;;;;;;-145.63;29.99;37510.91;5079054;28;20032;-69
2023/07/05 06:42:05;;;;;;;11.30;7.45;;;;;;;-145.63;28.50;37456.16;5065152;28;20041;-70
2023/07/05 06:44:31;;;;;;;12.05;7.30;;;;;;;-145.63;27.99;37428.78;5070136;28;20033;-67
2023/07/05 06:46:56;;;;;;;10.90;7.65;;;;;;;-145.63;29.16;37399.47;5080703;28;20031;-67
2023/07/05 06:49:22;;;;;;;13.30;7.28;;;;;;;-145.63;27.72;37393.59;5062667;28;20028;-67
2023/07/05 06:51:48;;;;;;;12.15;7.22;;;;;;;-145.63;27.34;37381.88;5080278;28;20032;-67
2023/07/05 06:54:13;;;;;;;9.38;7.05;;;;;;;-145.63;26.94;37399.47;5071758;28;20029;-66
2023/07/05 06:56:39;;;;;;;13.75;7.28;;;;;;;-145.63;26.91;37376.00;5066573;28;20025;-67
2023/07/05 06:59:04;;;;;;;13.75;7.05;;;;;;;-145.63;27.27;37340.84;5063027;28;20024;-67
2023/07/05 07:01:30;;;;;;;12.77;6.93;;;;;;;-145.63;26.62;37338.88;5066463;28;20029;-66
2023/07/05 07:03:56;;;;;;;12.13;6.97;;;;;;;-145.63;27.58;37327.16;5057165;28;20036;-67
2023/07/05 07:06:21;;;;;;;10.43;6.95;;;;;;;-145.63;26.57;37317.38;5055381;28;20052;-66
2023/07/05 07:08:48;;;;;;;17.15;6.72;;;;;;;-145.63;26.35;37395.56;5056532;28;20037;-68
2023/07/05 07:11:14;;;;;;;11.93;6.85;;;;;;;-145.63;26.83;37366.25;5067933;28;20040;-67
2023/07/05 07:13:40;;;;;;;10.68;6.65;;;;;;;-145.63;26.39;37366.25;5055269;28;20036;-66
2023/07/05 07:16:09;;;;;;;11.70;6.60;;;;;;;-145.63;26.46;37424.88;5055503;28;20229;-67
2023/07/05 07:18:36;;;;;;;12.43;7.05;;;;;;;-145.63;26.70;37411.19;5079261;28;20333;-67
2023/07/05 07:21:02;;;;;;;9.10;7.03;;;;;;;-145.63;26.25;37403.38;5075392;28;20107;-68
2023/07/05 07:23:29;;;;;;;11.75;6.78;;;;;;;-145.63;26.87;37389.69;5072522;28;20035;-68
2023/07/05 07:25:59;;;;;;;13.20;6.85;;;;;;;-145.63;26.07;37397.53;5082952;28;20041;-66
2023/07/05 07:28:25;;;;;;;12.38;6.50;;;;;;;-145.63;27.07;37342.78;5060267;28;20089;-68
2023/07/05 07:30:50;;;;;;;11.30;6.85;;;;;;;-145.63;27.10;37407.28;5068216;28;20079;-68
2023/07/05 07:33:16;;;;;;;16.75;7.80;;;;;;;-145.63;26.91;37381.88;5082575;28;20039;-68
2023/07/05 07:35:42;;;;;;;13.80;7.13;;;;;;;-145.63;27.17;37358.44;5069534;28;20321;-69
2023/07/05 07:38:07;;;;;;;13.55;7.32;;;;;;;-145.63;26.68;37411.19;5069217;28;20293;-67
2023/07/05 07:40:36;;;;;;;12.27;7.10;;;;;;;-145.63;27.08;37424.88;5079094;28;20171;-67
2023/07/05 07:43:06;;;;;;;10.80;7.47;;;;;;;-145.63;27.32;37448.34;5084723;28;20033;-69
2023/07/05 07:45:33;;;;;;;15.70;6.72;;;;;;;-145.63;27.37;37428.78;5070255;28;20025;-66
2023/07/05 07:47:59;;;;;;;12.07;6.85;;;;;;;-145.63;27.62;37389.69;5065903;28;20123;-67
2023/07/05 07:50:25;;;;;;;10.75;7.22;;;;;;;-145.63;27.52;37381.88;5071168;28;20032;-68
2023/07/05 07:52:52;;;;;;;12.52;7.40;;;;;;;-145.63;27.32;37325.19;5085050;28;20084;-66
2023/07/05 07:55:18;;;;;;;9.65;6.45;;;;;;;-145.63;27.68;37317.38;5065196;28;20103;-68
2023/07/05 07:57:44;;;;;;;9.98;7.07;;;;;;;-145.63;28.10;37288.06;5080915;28;20217;-67
2023/07/05 08:00:11;;;;;;;12.68;7.40;;;;;;;-145.63;27.52;37276.31;5076971;28;20032;-67
2023/07/05 08:02:37;;;;;;;11.70;7.22;;;;;;;-145.63;27.44;37280.22;5084026;28;20059;-67
2023/07/05 08:05:11;;;;;;;10.65;7.30;;;;;;;-145.63;27.82;37272.41;5082874;28;20051;-67
2023/07/05 08:07:37;;;;;;;11.73;7.20;;;;;;;-145.63;28.49;37270.47;5070915;28;20029;-69
2023/07/05 08:10:03;;;;;;;14.93;7.53;;;;;;;-145.63;28.19;37239.19;5078688;28;20036;-68
2023/07/05 08:12:29;;;;;;;15.80;7.75;;;;;;;-145.63;27.94;37225.50;5066974;28;20025;-67
2023/07/05 08:14:55;;;;;;;14.73;7.38;;;;;;;-145.63;28.22;37248.97;5065264;28;20032;-68
2023/07/05 08:17:21;;;;;;;13.02;7.75;;;;;;;-145.63;29.01;37223.53;5067205;28;20025;-67
2023/07/05 08:19:47;;;;;;;12.23;7.50;;;;;;;-145.63;27.58;37248.97;5065530;28;20041;-67
2023/07/05 08:22:12;;;;;;;12.07;7.85;;;;;;;-145.63;28.16;37219.63;5045723;28;20029;-67
2023/07/05 08:24:38;;;;;;;15.65;7.85;;;;;;;-145.63;28.63;37233.31;5075686;28;20033;-67
2023/07/05 08:27:05;;;;;;;15.25;8.02;;;;;;;-145.63;28.49;37225.50;5074711;28;20028;-67
2023/07/05 08:29:30;;;;;;;10.38;7.68;;;;;;;-145.63;27.80;37221.59;5070950;28;20020;-67
2023/07/05 08:31:57;;;;;;;12.25;7.53;;;;;;;-145.63;27.59;37202.03;5084239;28;20035;-68
2023/07/05 08:34:23;;;;;;;11.55;7.53;;;;;;;-145.63;27.64;37202.03;5044172;28;20230;-68
2023/07/05 08:36:49;;;;;;;15.18;8.32;;;;;;;-145.63;27.51;37174.69;5058044;28;20096;-70
2023/07/05 08:39:15;;;;;;;11.45;7.50;;;;;;;-145.63;27.93;37209.88;5077324;28;20318;-67
2023/07/05 08:41:49;;;;;;;10.10;7.55;;;;;;;-145.63;27.91;37159.03;5075809;28;20036;-67
2023/07/05 08:44:43;;;;;;;13.38;9.20;;;;;;;-145.63;27.92;36498.41;5081492;28;20036;-65
2023/07/05 08:47:11;;;;;;;12.05;7.70;;;;;;;-145.63;27.68;37155.13;5067535;28;20048;-66
2023/07/05 08:49:42;;;;;;;10.25;7.63;;;;;;;-145.63;28.20;37180.53;5084893;28;20039;-65
2023/07/05 08:52:30;;;;;;;11.20;8.43;;;;;;;-145.63;28.07;37280.22;5065474;28;20059;-66
2023/07/05 08:55:03;;;;;;;13.52;8.20;;;;;;;-145.63;28.13;37284.16;5081369;28;20036;-64
2023/07/05 08:57:37;;;;;;;15.70;9.25;;;;;;;-145.63;28.73;37303.69;5080853;28;20085;-64
2023/07/05 09:00:11;;;;;;;15.32;8.40;;;;;;;-145.63;28.67;37026.13;5073893;28;20217;-65
2023/07/05 09:02:38;;;;;;;14.27;8.27;;;;;;;-145.63;28.31;37198.13;5063709;28;20032;-66
2023/07/05 09:05:16;;;;;;;11.90;8.20;;;;;;;-145.63;29.20;37196.19;5065947;28;20105;-66
2023/07/05 09:08:09;;;;;;;11.30;7.78;;;;;;;-145.63;29.04;37172.72;5083751;28;20048;-65
2023/07/05 09:10:55;;;;;;;15.52;8.73;;;;;;;-145.63;29.50;37202.03;5044787;28;20056;-64
2023/07/05 09:13:29;;;;;;;12.85;8.48;;;;;;;-145.63;28.84;37176.63;5063910;28;20052;-65
2023/07/05 09:15:55;;;;;;;12.90;8.75;;;;;;;-145.63;28.52;37110.19;5060220;28;20032;-66
2023/07/05 09:18:34;;;;;;;14.23;8.30;;;;;;;-145.63;28.12;37141.44;5066230;28;20037;-66
2023/07/05 09:21:26;;;;;;;12.93;8.40;;;;;;;-145.63;29.20;37166.84;5072867;28;20033;-66
2023/07/05 09:23:53;;;;;;;;;;;;;;;-145.63;29.83;37159.03;5052090;28;20049;-66
2023/07/05 09:26:34;;;;;;;14.98;8.93;;;;;;;-145.63;29.53;37174.69;5065593;28;20236;-64
2023/07/05 09:29:09;;;;;;;13.32;8.55;;;;;;;-145.63;30.27;37172.72;5078385;28;20047;-64
2023/07/05 09:31:36;;;;;;;15.95;8.63;;;;;;;-145.63;29.56;37182.50;5069039;28;20027;-65
2023/07/05 09:34:31;;;;;;;15.38;9.35;;;;;;;-145.63;29.96;37223.53;5065525;28;20052;-66
2023/07/05 09:37:01;;;;;;;13.55;8.73;;;;;;;-145.63;30.13;37262.63;5063233;28;20087;-67
2023/07/05 09:39:51;;;;;;;11.07;8.27;;;;;;;-145.63;29.75;37256.78;5070243;28;20251;-66
2023/07/05 09:42:51;;;;;;;13.23;9.02;;;;;;;-145.63;29.89;37323.25;5061183;28;20096;-66
2023/07/05 09:45:17;;;;;;;18.98;9.15;;;;;;;-145.63;30.42;37317.38;5058162;28;20052;-66
2023/07/05 09:47:46;;;;;;;12.98;8.45;;;;;;;-145.63;30.35;37299.78;5067362;28;20031;-65
2023/07/05 09:50:16;;;;;;;12.52;8.70;;;;;;;-145.63;30.58;37303.69;5068793;28;20206;-65
2023/07/05 09:52:44;;;;;;;15.65;9.90;;;;;;;-145.63;30.82;37385.78;5064342;28;20059;-66
2023/07/05 09:55:15;;;;;;;13.88;8.88;;;;;;;-145.63;31.29;37374.06;5069943;28;20222;-66
2023/07/05 09:57:42;;;;;;;13.32;9.20;;;;;;;-145.63;31.48;37393.59;5077468;28;20021;-66
2023/07/05 10:00:20;;;;;;;14.77;9.23;;;;;;;-145.63;31.44;37420.97;5072149;28;20083;-66
2023/07/05 10:02:48;;;;;;;14.13;8.93;;;;;;;-145.63;31.55;37426.84;5064303;28;20029;-67
2023/07/05 10:05:23;;;;;;;14.85;9.02;;;;;;;-145.63;31.69;37452.25;5063531;28;20336;-66
2023/07/05 10:07:59;;;;;;;13.38;8.80;;;;;;;-145.63;32.32;37417.06;5063292;28;20033;-67
2023/07/05 10:10:36;;;;;;;13.43;9.50;;;;;;;-145.63;31.88;37473.75;5063289;28;20257;-65
2023/07/05 10:13:14;;;;;;;15.52;10.20;;;;;;;-145.63;32.13;37329.09;5080593;28;20095;-65
2023/07/05 10:15:48;;;;;;;15.05;10.65;;;;;;;-145.63;32.09;37452.25;5068164;28;20052;-66
2023/07/05 10:18:33;;;;;;;19.60;10.15;;;;;;;-145.63;32.28;37430.75;5074036;28;20048;-67
2023/07/05 10:21:04;;;;;;;13.20;9.75;;;;;;;-145.63;32.31;37424.88;5074271;28;20037;-68
2023/07/05 10:23:34;;;;;;;12.05;9.57;;;;;;;-145.63;32.56;37471.81;5067753;28;20301;-66
2023/07/05 10:26:05;;;;;;;19.13;10.50;;;;;;;-145.63;32.83;37471.81;5082169;28;20051;-66
2023/07/05 10:28:33;;;;;;;15.20;10.95;;;;;;;-145.63;32.72;37446.38;5066339;28;20028;-67
2023/07/05 10:31:01;;;;;;;17.60;10.38;;;;;;;-145.63;33.23;37522.63;5073775;28;20029;-66
2023/07/05 10:33:29;;;;;;;14.45;10.88;;;;;;;-145.63;33.00;37493.31;5079741;28;20024;-66
2023/07/05 10:36:02;;;;;;;15.05;11.13;;;;;;;-145.63;33.15;37507.00;5068394;28;20037;-66
2023/07/05 10:38:44;;;;;;;15.93;10.65;;;;;;;-145.63;34.22;37510.91;5066570;28;20028;-65
2023/07/05 10:41:19;;;;;;;13.02;9.98;;;;;;;-145.63;34.12;37495.25;5068540;28;20150;-66
2023/07/05 10:43:55;;;;;;;14.40;10.57;;;;;;;-145.63;33.63;37520.66;5086627;28;20036;-66
2023/07/05 10:46:25;;;;;;;16.15;10.27;;;;;;;-145.63;33.97;37565.63;5066984;28;20031;-67
2023/07/05 10:48:52;;;;;;;11.80;9.25;;;;;;;-145.63;33.51;37546.09;5082180;28;20741;-67
2023/07/05 10:51:37;;;;;;;12.75;9.70;;;;;;;-145.63;34.50;37550.00;5075398;28;20052;-67
2023/07/05 10:54:31;;;;;;;14.73;10.15;;;;;;;-145.63;34.11;37581.28;5066341;28;20035;-67
2023/07/05 10:57:01;;;;;;;18.80;10.20;;;;;;;-145.63;34.07;37561.72;5066425;28;20305;-67
2023/07/05 10:59:32;;;;;;;15.10;10.57;;;;;;;-145.63;34.10;37587.13;5070237;28;20082;-69
2023/07/05 11:02:02;;;;;;;15.18;10.18;;;;;;;-145.63;33.82;37630.16;5082722;28;20036;-68
2023/07/05 11:04:31;;;;;;;16.15;9.88;;;;;;;-145.63;34.17;37636.00;5045227;28;20100;-68
2023/07/05 11:07:10;;;;;;;15.32;10.63;;;;;;;-145.63;34.43;37084.75;5078348;28;20024;-68
2023/07/05 11:09:37;;;;;;;19.35;10.77;;;;;;;-145.63;34.52;37647.75;5073415;28;20032;-67
2023/07/05 11:12:09;;;;;;;17.20;10.00;;;;;;;-145.63;34.68;37632.09;5075321;28;20042;-68
2023/07/05 11:14:35;;;;;;;15.30;10.07;;;;;;;-145.63;34.25;37628.19;5081530;28;20028;-68